Time;durP1;ratioP1;P1;durP2;ratioP2;P2;SDS_P1;SDS_P2;PMS_P1;PMS_P2;Temp;Humidity;BMP_temperature;BMP_pressure;BME280_temperature;BME280_humidity;BME280_pressure;Samples;Min_cycle;Max_cycle;Signal;HPM_P1;HPM_P2
2024/04/01 00:00:16;;;;;;;10.10;4.28;;;;;;;;;;1917681;75;21081;-51
2024/04/01 00:02:45;;;;;;;23.67;5.12;;;;;;;;;;1917753;75;21003;-51
2024/04/01 00:05:13;;;;;;;13.88;5.10;;;;;;;;;;1917688;75;21093;-49
2024/04/01 00:07:45;;;;;;;26.33;5.80;;;;;;;;;;1917734;75;21023;-49
2024/04/01 00:10:12;;;;;;;12.18;5.20;;;;;;;;;;1917636;74;21477;-48
2024/04/01 00:12:40;;;;;;;23.35;4.85;;;;;;;;;;1917757;75;20995;-49
2024/04/01 00:15:09;;;;;;;66.47;9.05;;;;;;;;;;1917823;75;21092;-48
2024/04/01 00:17:38;;;;;;;19.23;5.22;;;;;;;;;;1917875;73;21027;-49
2024/04/01 00:20:07;;;;;;;21.82;4.85;;;;;;;;;;1917828;75;21081;-50
2024/04/01 00:22:35;;;;;;;20.85;5.42;;;;;;;;;;1917861;75;21030;-48
2024/04/01 00:25:04;;;;;;;7.05;4.45;;;;;;;;;;1917857;75;21099;-51
2024/04/01 00:27:34;;;;;;;6.97;4.10;;;;;;;;;;1917795;75;21006;-49
2024/04/01 00:30:03;;;;;;;5.72;3.70;;;;;;;;;;1917831;75;21461;-48
2024/04/01 00:32:33;;;;;;;7.15;4.28;;;;;;;;;;1917854;75;21003;-50
2024/04/01 00:35:02;;;;;;;6.47;4.05;;;;;;;;;;1917795;74;21003;-49
2024/04/01 00:37:31;;;;;;;6.80;4.12;;;;;;;;;;1924605;74;21034;-51
2024/04/01 00:39:59;;;;;;;7.33;3.87;;;;;;;;;;1931265;74;21088;-51
2024/04/01 00:42:28;;;;;;;11.80;4.97;;;;;;;;;;1931307;74;21088;-50
2024/04/01 00:44:58;;;;;;;5.67;3.90;;;;;;;;;;1931241;74;21014;-52
2024/04/01 00:47:27;;;;;;;8.05;4.28;;;;;;;;;;1931172;74;21066;-52
2024/04/01 00:49:57;;;;;;;6.55;4.50;;;;;;;;;;1931229;74;21043;-52
2024/04/01 00:52:26;;;;;;;7.25;4.22;;;;;;;;;;1931224;74;21080;-49
2024/04/01 00:54:55;;;;;;;7.37;4.67;;;;;;;;;;1931208;74;21104;-50
2024/04/01 00:57:24;;;;;;;5.60;4.05;;;;;;;;;;1931216;74;21100;-48
2024/04/01 00:59:54;;;;;;;9.23;4.47;;;;;;;;;;1931310;74;21061;-51
2024/04/01 01:02:22;;;;;;;7.70;4.55;;;;;;;;;;1931220;74;21022;-49
2024/04/01 01:04:52;;;;;;;7.17;4.08;;;;;;;;;;1931126;74;21093;-50
2024/04/01 01:07:21;;;;;;;8.68;4.37;;;;;;;;;;1931166;74;21462;-51
2024/04/01 01:09:49;;;;;;;7.22;4.67;;;;;;;;;;1931323;74;21135;-51
2024/04/01 01:12:19;;;;;;;7.95;4.05;;;;;;;;;;1931208;74;21030;-49
2024/04/01 01:14:49;;;;;;;7.22;4.22;;;;;;;;;;1931214;74;21523;-50
2024/04/01 01:17:18;;;;;;;7.67;4.42;;;;;;;;;;1931139;74;21441;-50
2024/04/01 01:19:46;;;;;;;6.17;3.75;;;;;;;;;;1931222;74;21101;-50
2024/04/01 01:22:15;;;;;;;11.55;5.30;;;;;;;;;;1931249;74;21100;-48
2024/04/01 01:24:44;;;;;;;8.15;3.90;;;;;;;;;;1931211;74;21038;-48
2024/04/01 01:27:12;;;;;;;8.75;4.50;;;;;;;;;;1931164;74;21031;-49
2024/04/01 01:29:41;;;;;;;9.45;5.30;;;;;;;;;;1931196;74;21034;-52
2024/04/01 01:32:10;;;;;;;6.78;5.05;;;;;;;;;;1931271;74;21076;-50
2024/04/01 01:34:38;;;;;;;10.05;5.12;;;;;;;;;;1931329;74;21140;-49
2024/04/01 01:37:07;;;;;;;8.43;5.25;;;;;;;;;;1929440;74;21022;-50
2024/04/01 01:39:36;;;;;;;11.48;5.22;;;;;;;;;;1917715;75;20979;-48
2024/04/01 01:42:05;;;;;;;10.55;4.95;;;;;;;;;;1917812;75;20995;-53
2024/04/01 01:44:34;;;;;;;8.20;5.20;;;;;;;;;;1917642;75;21027;-48
2024/04/01 01:47:02;;;;;;;8.63;4.78;;;;;;;;;;1917695;75;21220;-52
2024/04/01 01:49:31;;;;;;;13.93;5.25;;;;;;;;;;1917775;75;21015;-52
2024/04/01 01:51:59;;;;;;;12.88;5.67;;;;;;;;;;1917667;75;21035;-53
2024/04/01 01:54:28;;;;;;;13.70;6.05;;;;;;;;;;1917710;75;21074;-48
2024/04/01 01:56:57;;;;;;;18.62;7.87;;;;;;;;;;1917782;75;21023;-53
2024/04/01 01:59:26;;;;;;;15.75;5.22;;;;;;;;;;1917730;75;21101;-52
2024/04/01 02:01:54;;;;;;;8.08;5.60;;;;;;;;;;1917742;75;21027;-50
2024/04/01 02:04:23;;;;;;;13.43;5.35;;;;;;;;;;1917812;75;21092;-52
2024/04/01 02:06:51;;;;;;;13.65;5.72;;;;;;;;;;1917695;75;21093;-53
2024/04/01 02:09:21;;;;;;;9.60;4.97;;;;;;;;;;1917638;75;21031;-49
2024/04/01 02:11:50;;;;;;;7.35;4.67;;;;;;;;;;1917706;75;21061;-53
2024/04/01 02:14:19;;;;;;;13.20;5.60;;;;;;;;;;1917722;75;21062;-49
2024/04/01 02:16:48;;;;;;;12.28;5.10;;;;;;;;;;1917672;75;21003;-49
2024/04/01 02:19:16;;;;;;;5.40;4.60;;;;;;;;;;1917798;75;21015;-51
2024/04/01 02:21:46;;;;;;;7.22;3.90;;;;;;;;;;1917754;75;21011;-52
2024/04/01 02:24:17;;;;;;;6.17;3.70;;;;;;;;;;1917623;75;21101;-50
2024/04/01 02:26:45;;;;;;;6.25;4.42;;;;;;;;;;1917809;75;21097;-52
2024/04/01 02:29:14;;;;;;;8.13;4.10;;;;;;;;;;1917722;75;21022;-52
2024/04/01 02:31:43;;;;;;;15.55;4.58;;;;;;;;;;1917808;75;21007;-51
2024/04/01 02:34:11;;;;;;;6.22;4.05;;;;;;;;;;1917654;75;20986;-50
2024/04/01 02:36:40;;;;;;;6.78;4.08;;;;;;;;;;1917604;75;21101;-49
2024/04/01 02:39:16;;;;;;;6.67;4.62;;;;;;;;;;1917720;74;21148;-50
2024/04/01 02:41:41;;;;;;;6.08;4.42;;;;;;;;;;1915961;74;21457;-53
2024/04/01 02:44:09;;;;;;;12.98;5.00;;;;;;;;;;1917667;75;21116;-53
2024/04/01 02:46:38;;;;;;;16.55;4.92;;;;;;;;;;1917704;75;21022;-53
2024/04/01 02:49:06;;;;;;;17.60;5.70;;;;;;;;;;1917692;75;21011;-53
2024/04/01 02:51:35;;;;;;;26.50;6.70;;;;;;;;;;1917713;75;21027;-53
2024/04/01 02:54:04;;;;;;;20.68;5.37;;;;;;;;;;1917746;75;21031;-48
2024/04/01 02:56:34;;;;;;;24.72;5.60;;;;;;;;;;1917751;75;21066;-51
2024/04/01 02:59:09;;;;;;;21.20;5.62;;;;;;;;;;1917686;75;21019;-49
2024/04/01 03:01:35;;;;;;;16.87;5.62;;;;;;;;;;1917517;74;21452;-51
2024/04/01 03:04:04;;;;;;;16.50;5.30;;;;;;;;;;1917747;75;21035;-52
2024/04/01 03:06:33;;;;;;;11.63;4.90;;;;;;;;;;1917673;75;20999;-52
2024/04/01 03:09:01;;;;;;;23.57;5.92;;;;;;;;;;1917632;75;21026;-50
2024/04/01 03:11:30;;;;;;;12.73;4.42;;;;;;;;;;1917760;75;21011;-50
2024/04/01 03:13:59;;;;;;;25.90;5.53;;;;;;;;;;1917634;75;21054;-48
2024/04/01 03:16:28;;;;;;;18.73;6.15;;;;;;;;;;1917623;75;21097;-51
2024/04/01 03:18:57;;;;;;;14.47;5.12;;;;;;;;;;1917627;75;21093;-53
2024/04/01 03:21:25;;;;;;;16.95;5.03;;;;;;;;;;1917662;75;21094;-54
2024/04/01 03:23:56;;;;;;;19.00;5.12;;;;;;;;;;1917620;75;21003;-50
2024/04/01 03:26:24;;;;;;;14.00;4.72;;;;;;;;;;1917594;75;21473;-49
2024/04/01 03:28:53;;;;;;;9.03;4.70;;;;;;;;;;1917524;75;21015;-50
2024/04/01 03:31:21;;;;;;;23.57;7.62;;;;;;;;;;1917638;75;21043;-50
2024/04/01 03:33:50;;;;;;;34.73;7.58;;;;;;;;;;1917598;75;21096;-51
2024/04/01 03:36:19;;;;;;;65.25;8.73;;;;;;;;;;1917616;75;21030;-52
2024/04/01 03:38:48;;;;;;;39.73;9.63;;;;;;;;;;1917655;74;21128;-52
2024/04/01 03:41:16;;;;;;;27.52;7.37;;;;;;;;;;1917842;75;21007;-50
2024/04/01 03:43:45;;;;;;;30.12;8.33;;;;;;;;;;1917794;75;21026;-49
2024/04/01 03:46:14;;;;;;;30.80;5.58;;;;;;;;;;1917815;75;21031;-49
2024/04/01 03:48:42;;;;;;;23.02;6.80;;;;;;;;;;1917764;75;21007;-50
2024/04/01 03:51:10;;;;;;;28.17;8.78;;;;;;;;;;1917736;75;21039;-52
2024/04/01 03:53:39;;;;;;;10.43;5.72;;;;;;;;;;1917737;75;21066;-49
2024/04/01 03:56:09;;;;;;;18.35;5.53;;;;;;;;;;1917762;75;21034;-48
2024/04/01 03:58:38;;;;;;;13.32;5.65;;;;;;;;;;1917851;75;21072;-50
2024/04/01 04:01:07;;;;;;;16.42;5.90;;;;;;;;;;1917742;75;21090;-49
2024/04/01 04:03:36;;;;;;;31.02;5.97;;;;;;;;;;1917744;75;21043;-50
2024/04/01 04:06:05;;;;;;;49.75;8.18;;;;;;;;;;1917865;75;20995;-51
2024/04/01 04:08:33;;;;;;;45.40;7.60;;;;;;;;;;1917646;75;21011;-52
2024/04/01 04:11:07;;;;;;;27.37;6.80;;;;;;;;;;1917839;75;21086;-51
2024/04/01 04:13:32;;;;;;;37.15;7.67;;;;;;;;;;1917259;74;21480;-49
2024/04/01 04:16:01;;;;;;;24.23;6.78;;;;;;;;;;1917732;75;21023;-53
2024/04/01 04:18:30;;;;;;;19.40;6.90;;;;;;;;;;1917718;75;21063;-54
2024/04/01 04:20:58;;;;;;;23.57;5.95;;;;;;;;;;1917794;75;21032;-52
2024/04/01 04:23:28;;;;;;;17.20;6.25;;;;;;;;;;1917870;75;21135;-52
2024/04/01 04:25:56;;;;;;;29.02;6.25;;;;;;;;;;1917761;75;21057;-51
2024/04/01 04:28:25;;;;;;;15.80;6.40;;;;;;;;;;1917671;75;21023;-50
2024/04/01 04:30:53;;;;;;;13.13;5.75;;;;;;;;;;1917867;75;21039;-52
2024/04/01 04:33:22;;;;;;;19.95;6.42;;;;;;;;;;1917637;75;21113;-49
2024/04/01 04:35:51;;;;;;;23.18;6.80;;;;;;;;;;1917725;75;21043;-53
2024/04/01 04:38:20;;;;;;;23.80;7.80;;;;;;;;;;1917609;74;21221;-50
2024/04/01 04:40:49;;;;;;;31.17;7.15;;;;;;;;;;1917873;75;21019;-51
2024/04/01 04:43:18;;;;;;;22.55;9.08;;;;;;;;;;1917680;75;21027;-52
2024/04/01 04:45:48;;;;;;;26.07;9.48;;;;;;;;;;1917864;75;21003;-49
2024/04/01 04:48:16;;;;;;;28.12;8.85;;;;;;;;;;1917670;75;21523;-50
2024/04/01 04:50:44;;;;;;;26.70;7.97;;;;;;;;;;1917722;75;21065;-51
2024/04/01 04:53:13;;;;;;;21.12;7.58;;;;;;;;;;1917737;75;21093;-52
2024/04/01 04:55:42;;;;;;;32.33;7.17;;;;;;;;;;1917661;75;21148;-52
2024/04/01 04:58:11;;;;;;;25.43;6.85;;;;;;;;;;1917648;75;21547;-53
2024/04/01 05:00:40;;;;;;;18.17;5.75;;;;;;;;;;1917778;75;21324;-53
2024/04/01 05:03:08;;;;;;;11.35;4.90;;;;;;;;;;1917651;75;20975;-50
2024/04/01 05:05:37;;;;;;;12.25;4.70;;;;;;;;;;1917645;75;21035;-51
2024/04/01 05:08:06;;;;;;;8.40;3.83;;;;;;;;;;1917569;75;21230;-53
2024/04/01 05:10:35;;;;;;;12.95;4.42;;;;;;;;;;1917714;75;21152;-53
2024/04/01 05:13:03;;;;;;;15.85;3.72;;;;;;;;;;1917587;75;20999;-51
2024/04/01 05:15:32;;;;;;;7.70;4.25;;;;;;;;;;1917743;75;21054;-53
2024/04/01 05:18:00;;;;;;;9.10;4.58;;;;;;;;;;1917551;75;21066;-50
2024/04/01 05:20:29;;;;;;;25.50;4.80;;;;;;;;;;1917673;75;21035;-51
2024/04/01 05:22:58;;;;;;;14.95;4.35;;;;;;;;;;1917547;75;21093;-52
2024/04/01 05:25:26;;;;;;;19.48;6.05;;;;;;;;;;1917603;75;21065;-51
2024/04/01 05:27:55;;;;;;;15.13;6.40;;;;;;;;;;1917562;75;21003;-52
2024/04/01 05:30:25;;;;;;;13.95;4.50;;;;;;;;;;1917397;75;21128;-51
2024/04/01 05:32:54;;;;;;;9.48;4.03;;;;;;;;;;1917594;75;21062;-51
2024/04/01 05:35:22;;;;;;;6.72;4.00;;;;;;;;;;1917450;75;21026;-52
2024/04/01 05:37:51;;;;;;;13.35;4.30;;;;;;;;;;1917468;75;21035;-50
2024/04/01 05:40:20;;;;;;;8.78;4.25;;;;;;;;;;1927011;74;21089;-51
2024/04/01 05:42:49;;;;;;;29.75;5.95;;;;;;;;;;1931027;74;21018;-51
2024/04/01 05:45:18;;;;;;;6.05;3.83;;;;;;;;;;1931247;74;21056;-49
2024/04/01 05:47:48;;;;;;;10.00;4.58;;;;;;;;;;1930870;74;21096;-48
2024/04/01 05:50:20;;;;;;;7.35;3.55;;;;;;;;;;1931071;74;21538;-51
2024/04/01 05:52:48;;;;;;;44.45;5.83;;;;;;;;;;1930936;74;21049;-49
2024/04/01 05:55:17;;;;;;;7.65;5.20;;;;;;;;;;1931127;74;21061;-50
2024/04/01 05:57:46;;;;;;;22.77;5.62;;;;;;;;;;1931007;74;21293;-49
2024/04/01 06:00:15;;;;;;;15.38;4.90;;;;;;;;;;1931169;74;21096;-51
2024/04/01 06:02:44;;;;;;;48.08;8.15;;;;;;;;;;1931047;74;21019;-51
2024/04/01 06:05:12;;;;;;;11.05;4.42;;;;;;;;;;1931118;74;21007;-49
2024/04/01 06:07:41;;;;;;;12.28;5.00;;;;;;;;;;1931094;74;21022;-48
2024/04/01 06:10:10;;;;;;;11.38;5.65;;;;;;;;;;1931029;74;21409;-49
2024/04/01 06:12:38;;;;;;;12.53;4.78;;;;;;;;;;1931037;74;21047;-52
2024/04/01 06:15:07;;;;;;;15.40;6.25;;;;;;;;;;1931157;74;21002;-51
2024/04/01 06:17:36;;;;;;;17.27;6.60;;;;;;;;;;1930992;74;21023;-48
2024/04/01 06:20:05;;;;;;;15.58;5.65;;;;;;;;;;1931013;74;21031;-50
2024/04/01 06:22:34;;;;;;;17.52;5.33;;;;;;;;;;1930978;74;21072;-49
2024/04/01 06:25:03;;;;;;;14.10;6.45;;;;;;;;;;1931145;74;21100;-48
2024/04/01 06:27:32;;;;;;;113.30;13.20;;;;;;;;;;1930977;74;21102;-50
2024/04/01 06:30:01;;;;;;;14.80;4.92;;;;;;;;;;1931042;74;21002;-50
2024/04/01 06:32:30;;;;;;;15.45;6.17;;;;;;;;;;1930995;74;21105;-50
2024/04/01 06:34:58;;;;;;;16.37;5.67;;;;;;;;;;1931027;74;21088;-48
2024/04/01 06:37:28;;;;;;;16.87;6.28;;;;;;;;;;1930988;74;21026;-48
2024/04/01 06:39:58;;;;;;;21.85;8.03;;;;;;;;;;1926516;74;21501;-51
2024/04/01 06:42:27;;;;;;;22.15;7.03;;;;;;;;;;1917487;75;21061;-51
2024/04/01 06:44:55;;;;;;;28.15;8.35;;;;;;;;;;1917565;75;21163;-48
2024/04/01 06:47:24;;;;;;;17.27;6.67;;;;;;;;;;1917536;75;21035;-51
2024/04/01 06:49:53;;;;;;;14.07;6.15;;;;;;;;;;1917546;75;21007;-49
2024/04/01 06:52:21;;;;;;;18.50;6.80;;;;;;;;;;1917496;75;21011;-48
2024/04/01 06:54:50;;;;;;;14.87;6.42;;;;;;;;;;1917557;75;20995;-49
2024/04/01 06:57:19;;;;;;;58.28;8.25;;;;;;;;;;1917510;75;20999;-48
2024/04/01 06:59:48;;;;;;;17.35;7.28;;;;;;;;;;1917537;75;21389;-51
2024/04/01 07:02:16;;;;;;;17.07;6.53;;;;;;;;;;1917505;75;21035;-51
2024/04/01 07:04:45;;;;;;;15.78;6.90;;;;;;;;;;1917496;75;21027;-51
2024/04/01 07:07:13;;;;;;;16.97;7.72;;;;;;;;;;1917414;75;20976;-52
2024/04/01 07:09:42;;;;;;;25.85;8.08;;;;;;;;;;1917501;75;21104;-51
2024/04/01 07:12:10;;;;;;;26.00;6.53;;;;;;;;;;1917458;75;21089;-50
2024/04/01 07:14:39;;;;;;;18.30;6.22;;;;;;;;;;1917582;75;20996;-50
2024/04/01 07:17:07;;;;;;;15.40;7.67;;;;;;;;;;1917581;75;21047;-49
2024/04/01 07:19:36;;;;;;;22.05;7.35;;;;;;;;;;1917668;75;20999;-50
2024/04/01 07:22:05;;;;;;;18.12;7.87;;;;;;;;;;1917605;75;21031;-50
2024/04/01 07:24:33;;;;;;;27.73;7.55;;;;;;;;;;1917630;75;21067;-49
2024/04/01 07:27:02;;;;;;;15.50;6.20;;;;;;;;;;1917640;75;21022;-50
2024/04/01 07:29:31;;;;;;;21.87;6.37;;;;;;;;;;1917744;75;21070;-50
2024/04/01 07:31:59;;;;;;;15.43;6.58;;;;;;;;;;1917749;73;21088;-53
2024/04/01 07:34:28;;;;;;;12.95;6.22;;;;;;;;;;1917607;75;21039;-48
2024/04/01 07:36:56;;;;;;;17.77;5.53;;;;;;;;;;1917731;75;21077;-52
2024/04/01 07:39:25;;;;;;;59.35;8.90;;;;;;;;;;1917665;75;21023;-51
2024/04/01 07:41:54;;;;;;;16.20;6.83;;;;;;;;;;1929956;74;21044;-53
2024/04/01 07:44:22;;;;;;;19.17;5.33;;;;;;;;;;1933726;73;21031;-55
2024/04/01 07:46:51;;;;;;;12.28;4.35;;;;;;;;;;1965622;73;21090;-54
2024/04/01 07:49:20;;;;;;;10.80;3.90;;;;;;;;;;1945785;73;21044;-53
2024/04/01 07:51:48;;;;;;;8.90;3.75;;;;;;;;;;1935899;73;21098;-49
2024/04/01 07:54:17;;;;;;;33.95;6.55;;;;;;;;;;1947235;73;21022;-52
2024/04/01 07:56:45;;;;;;;14.70;5.30;;;;;;;;;;1936274;73;21086;-52
2024/04/01 07:59:14;;;;;;;15.00;5.65;;;;;;;;;;1931073;74;21084;-53
2024/04/01 08:01:43;;;;;;;15.20;4.53;;;;;;;;;;1940621;73;21083;-53
2024/04/01 08:04:14;;;;;;;10.80;4.05;;;;;;;;;;1935565;73;21276;-55
2024/04/01 08:06:43;;;;;;;7.17;4.12;;;;;;;;;;1930835;74;20975;-53
2024/04/01 08:09:12;;;;;;;17.62;4.70;;;;;;;;;;1930826;74;21003;-53
2024/04/01 08:11:40;;;;;;;20.10;4.62;;;;;;;;;;1931049;74;21140;-53
2024/04/01 08:14:09;;;;;;;11.38;4.67;;;;;;;;;;1934829;73;21060;-53
2024/04/01 08:16:38;;;;;;;10.60;5.00;;;;;;;;;;1935553;73;21484;-52
2024/04/01 08:19:07;;;;;;;15.28;5.45;;;;;;;;;;1935491;73;21008;-50
2024/04/01 08:21:36;;;;;;;16.37;5.50;;;;;;;;;;1954826;73;21026;-53
2024/04/01 08:24:05;;;;;;;7.42;3.80;;;;;;;;;;1962444;73;21030;-50
2024/04/01 08:26:33;;;;;;;8.00;3.45;;;;;;;;;;1930789;74;21078;-53
2024/04/01 08:29:02;;;;;;;8.13;4.42;;;;;;;;;;1930754;73;21109;-52
2024/04/01 08:31:30;;;;;;;6.17;3.50;;;;;;;;;;1935705;73;21114;-54
2024/04/01 08:33:59;;;;;;;8.58;3.37;;;;;;;;;;1940391;73;21018;-53
2024/04/01 08:36:28;;;;;;;8.78;3.75;;;;;;;;;;1930893;74;21088;-54
2024/04/01 08:38:57;;;;;;;7.30;2.98;;;;;;;;;;1931231;73;21073;-55
2024/04/01 08:41:26;;;;;;;10.28;3.40;;;;;;;;;;1927488;74;21035;-49
2024/04/01 08:43:56;;;;;;;9.35;3.60;;;;;;;;;;1923970;74;21023;-51
2024/04/01 08:46:26;;;;;;;13.28;5.22;;;;;;;;;;1922396;74;21023;-53
2024/04/01 08:48:56;;;;;;;10.68;4.40;;;;;;;;;;1924438;74;21097;-50
2024/04/01 08:51:25;;;;;;;41.50;6.30;;;;;;;;;;1924483;74;21016;-51
2024/04/01 08:53:55;;;;;;;7.40;4.20;;;;;;;;;;1924369;74;21037;-51
2024/04/01 08:56:25;;;;;;;4.65;2.70;;;;;;;;;;1924257;74;21027;-48
2024/04/01 08:58:54;;;;;;;11.30;3.65;;;;;;;;;;1923230;74;21039;-55
2024/04/01 09:01:22;;;;;;;6.20;2.70;;;;;;;;;;1923041;74;21148;-52
2024/04/01 09:03:52;;;;;;;13.30;4.12;;;;;;;;;;1922609;74;21061;-53
2024/04/01 09:06:20;;;;;;;11.53;3.65;;;;;;;;;;1924039;74;21081;-50
2024/04/01 09:08:50;;;;;;;10.55;3.20;;;;;;;;;;1924074;74;21097;-54
2024/04/01 09:11:19;;;;;;;5.03;2.12;;;;;;;;;;1924190;74;21138;-54
2024/04/01 09:13:50;;;;;;;12.00;3.40;;;;;;;;;;1924344;74;21457;-53
2024/04/01 09:16:26;;;;;;;11.22;2.83;;;;;;;;;;1924392;74;21097;-52
2024/04/01 09:18:55;;;;;;;11.68;2.58;;;;;;;;;;1922976;74;21476;-54
2024/04/01 09:21:23;;;;;;;9.28;3.00;;;;;;;;;;1923675;74;21155;-53
2024/04/01 09:23:53;;;;;;;10.68;2.77;;;;;;;;;;1923789;74;21011;-54
2024/04/01 09:26:23;;;;;;;7.40;3.10;;;;;;;;;;1923646;74;21101;-55
2024/04/01 09:28:52;;;;;;;5.97;2.30;;;;;;;;;;1923124;74;21034;-55
2024/04/01 09:31:20;;;;;;;5.83;2.35;;;;;;;;;;1923737;74;21093;-54
2024/04/01 09:33:49;;;;;;;19.85;3.05;;;;;;;;;;1923619;74;20999;-55
2024/04/01 09:36:18;;;;;;;7.83;2.37;;;;;;;;;;1923756;74;21104;-53
2024/04/01 09:38:47;;;;;;;5.55;2.27;;;;;;;;;;1923797;74;21038;-54
2024/04/01 09:41:15;;;;;;;4.50;1.80;;;;;;;;;;1921995;74;21055;-56
2024/04/01 09:43:44;;;;;;;6.67;2.80;;;;;;;;;;1917006;75;21144;-54
2024/04/01 09:46:13;;;;;;;8.03;2.12;;;;;;;;;;1916965;75;21014;-55
2024/04/01 09:48:43;;;;;;;5.53;1.90;;;;;;;;;;1916794;75;21054;-55
2024/04/01 09:51:12;;;;;;;10.15;2.72;;;;;;;;;;1917120;75;21070;-53
2024/04/01 09:53:41;;;;;;;9.20;2.60;;;;;;;;;;1916553;75;21074;-55
2024/04/01 09:56:26;;;;;;;11.97;2.77;;;;;;;;;;1915956;75;21039;-56
2024/04/01 09:58:54;;;;;;;;;;;;;;;;;;1917044;74;21039;-53
2024/04/01 10:01:30;;;;;;;6.90;2.58;;;;;;;;;;1917297;75;20486;-51
2024/04/01 10:03:59;;;;;;;11.33;2.95;;;;;;;;;;1906220;75;21019;-50
2024/04/01 10:06:46;;;;;;;7.17;2.12;;;;;;;;;;1916656;75;21077;-53
2024/04/01 10:09:32;;;;;;;13.00;3.12;;;;;;;;;;1916859;75;21175;-53
2024/04/01 10:12:11;;;;;;;27.45;5.45;;;;;;;;;;1915224;74;21151;-53
2024/04/01 10:14:47;;;;;;;18.48;4.30;;;;;;;;;;1915054;74;20991;-52
2024/04/01 10:17:29;;;;;;;11.93;3.40;;;;;;;;;;1914728;74;21094;-51
2024/04/01 10:20:03;;;;;;;18.67;3.72;;;;;;;;;;1916495;75;21022;-51
2024/04/01 10:22:41;;;;;;;12.73;5.25;;;;;;;;;;1916948;75;21066;-56
2024/04/01 10:25:20;;;;;;;13.95;3.98;;;;;;;;;;1916912;75;21401;-56
2024/04/01 10:27:59;;;;;;;6.75;3.30;;;;;;;;;;1944248;74;21035;-49
2024/04/01 10:30:33;;;;;;;13.22;4.25;;;;;;;;;;1915492;74;21533;-53
2024/04/01 10:33:09;;;;;;;18.62;3.15;;;;;;;;;;1914721;74;21068;-54
2024/04/01 10:35:39;;;;;;;12.35;2.27;;;;;;;;;;1911371;74;21034;-52
2024/04/01 10:38:12;;;;;;;9.43;2.62;;;;;;;;;;1917136;74;21046;-53
2024/04/01 10:40:48;;;;;;;17.15;2.40;;;;;;;;;;1918471;74;21088;-52
2024/04/01 10:43:34;;;;;;;10.40;2.25;;;;;;;;;;1899975;74;21150;-48
2024/04/01 10:46:08;;;;;;;11.12;2.10;;;;;;;;;;1913297;74;21092;-49
2024/04/01 10:48:38;;;;;;;10.18;2.17;;;;;;;;;;1904035;74;21057;-49
2024/04/01 10:51:08;;;;;;;8.00;1.70;;;;;;;;;;1903141;74;21147;-51
2024/04/01 10:53:46;;;;;;;14.70;2.72;;;;;;;;;;1913607;74;21049;-51
2024/04/01 10:56:22;;;;;;;10.95;2.35;;;;;;;;;;1894274;74;21047;-53
2024/04/01 10:59:01;;;;;;;11.95;2.83;;;;;;;;;;1906573;74;21049;-54
2024/04/01 11:01:39;;;;;;;7.03;2.02;;;;;;;;;;1901145;74;21144;-55
2024/04/01 11:04:08;;;;;;;12.70;3.72;;;;;;;;;;1817086;74;21184;-52
2024/04/01 11:06:45;;;;;;;9.78;1.75;;;;;;;;;;1909888;74;21069;-53
2024/04/01 11:09:15;;;;;;;8.53;2.20;;;;;;;;;;1901700;74;20997;-53
2024/04/01 11:11:48;;;;;;;10.18;2.45;;;;;;;;;;1902839;74;21009;-53
2024/04/01 11:14:18;;;;;;;10.28;1.92;;;;;;;;;;1908225;74;21130;-53
2024/04/01 11:16:47;;;;;;;7.05;2.45;;;;;;;;;;1905354;74;21134;-53
2024/04/01 11:19:17;;;;;;;6.42;1.92;;;;;;;;;;1906192;74;21009;-54
2024/04/01 11:21:47;;;;;;;8.48;2.87;;;;;;;;;;1902436;74;21001;-56
2024/04/01 11:24:17;;;;;;;8.75;1.85;;;;;;;;;;1908103;74;21097;-53
2024/04/01 11:26:56;;;;;;;23.52;2.72;;;;;;;;;;1903926;74;21092;-55
2024/04/01 11:29:26;;;;;;;9.10;2.33;;;;;;;;;;1909070;74;21115;-53
2024/04/01 11:31:56;;;;;;;7.33;2.02;;;;;;;;;;1909863;74;21026;-57
2024/04/01 11:34:29;;;;;;;8.45;2.10;;;;;;;;;;1905344;74;21139;-55
2024/04/01 11:37:14;;;;;;;36.70;4.97;;;;;;;;;;1905966;74;20978;-56
2024/04/01 11:39:44;;;;;;;8.40;1.82;;;;;;;;;;1834475;77;21174;-56
2024/04/01 11:42:13;;;;;;;8.23;2.52;;;;;;;;;;1886920;74;21092;-56
2024/04/01 11:44:43;;;;;;;14.90;3.17;;;;;;;;;;1920092;74;21043;-54
2024/04/01 11:47:13;;;;;;;7.03;1.40;;;;;;;;;;1922827;74;21067;-56
2024/04/01 11:49:44;;;;;;;9.03;2.25;;;;;;;;;;1921550;74;21125;-56
2024/04/01 11:52:13;;;;;;;5.72;1.37;;;;;;;;;;1915551;74;21095;-54
2024/04/01 11:54:42;;;;;;;5.35;2.00;;;;;;;;;;1921119;74;21077;-56
2024/04/01 11:57:24;;;;;;;2.70;1.37;;;;;;;;;;1919137;74;21131;-50
2024/04/01 11:59:55;;;;;;;7.72;1.60;;;;;;;;;;1918729;74;21160;-54
2024/04/01 12:02:23;;;;;;;12.60;2.92;;;;;;;;;;1922641;74;21180;-57
2024/04/01 12:04:53;;;;;;;9.50;1.70;;;;;;;;;;1918426;74;21138;-55
2024/04/01 12:07:22;;;;;;;5.65;1.52;;;;;;;;;;1920737;74;21191;-56
2024/04/01 12:09:51;;;;;;;6.03;1.20;;;;;;;;;;1922863;74;21097;-55
2024/04/01 12:12:21;;;;;;;3.08;1.62;;;;;;;;;;1926147;74;21054;-52
2024/04/01 12:14:49;;;;;;;9.90;1.82;;;;;;;;;;1919875;74;21070;-58
2024/04/01 12:17:19;;;;;;;7.67;2.30;;;;;;;;;;1927052;74;21156;-55
2024/04/01 12:19:48;;;;;;;10.35;2.62;;;;;;;;;;1916540;74;21094;-57
2024/04/01 12:22:16;;;;;;;23.30;3.08;;;;;;;;;;1921243;74;21143;-55
2024/04/01 12:24:45;;;;;;;8.95;1.80;;;;;;;;;;1915965;74;21099;-52
2024/04/01 12:27:15;;;;;;;4.37;1.55;;;;;;;;;;1919701;74;21235;-49
2024/04/01 12:29:44;;;;;;;10.38;2.37;;;;;;;;;;1917961;74;21401;-53
2024/04/01 12:32:13;;;;;;;18.25;3.33;;;;;;;;;;1915082;74;21015;-53
2024/04/01 12:34:43;;;;;;;16.23;2.22;;;;;;;;;;1923198;74;21076;-51
2024/04/01 12:37:12;;;;;;;6.28;1.80;;;;;;;;;;1920578;74;21050;-54
2024/04/01 12:39:45;;;;;;;6.70;1.30;;;;;;;;;;1928790;74;21026;-50
2024/04/01 12:42:15;;;;;;;10.30;1.67;;;;;;;;;;1919713;74;21007;-52
2024/04/01 12:44:44;;;;;;;6.72;1.50;;;;;;;;;;1915582;75;20982;-54
2024/04/01 12:47:14;;;;;;;6.95;1.07;;;;;;;;;;1919575;74;21041;-55
2024/04/01 12:49:43;;;;;;;9.95;2.02;;;;;;;;;;1923777;74;21512;-51
2024/04/01 12:52:13;;;;;;;8.80;1.67;;;;;;;;;;1923347;74;21131;-48
2024/04/01 12:54:43;;;;;;;9.78;2.45;;;;;;;;;;1912701;75;21659;-50
2024/04/01 12:57:22;;;;;;;8.68;2.20;;;;;;;;;;1910596;75;21154;-54
2024/04/01 12:59:52;;;;;;;11.80;2.05;;;;;;;;;;1913339;75;21053;-55
2024/04/01 13:02:28;;;;;;;6.20;1.77;;;;;;;;;;1912029;75;21018;-53
2024/04/01 13:05:00;;;;;;;12.63;2.12;;;;;;;;;;1913710;75;21022;-53
2024/04/01 13:07:42;;;;;;;6.53;2.35;;;;;;;;;;1912529;75;21551;-49
2024/04/01 13:10:12;;;;;;;10.68;1.80;;;;;;;;;;1911915;74;21042;-56
2024/04/01 13:12:45;;;;;;;15.45;2.20;;;;;;;;;;1911238;75;21077;-56
2024/04/01 13:15:24;;;;;;;7.90;1.45;;;;;;;;;;1914004;75;21107;-57
2024/04/01 13:18:03;;;;;;;5.87;1.55;;;;;;;;;;1914099;75;21014;-56
2024/04/01 13:20:42;;;;;;;6.28;1.40;;;;;;;;;;1913011;75;21084;-56
2024/04/01 13:23:11;;;;;;;7.83;1.90;;;;;;;;;;1913179;75;21068;-58
2024/04/01 13:25:42;;;;;;;10.32;1.87;;;;;;;;;;1909652;75;21084;-58
2024/04/01 13:28:11;;;;;;;3.10;1.10;;;;;;;;;;1914081;75;21166;-58
2024/04/01 13:30:47;;;;;;;5.15;1.90;;;;;;;;;;1908516;75;21057;-58
2024/04/01 13:33:17;;;;;;;3.72;1.10;;;;;;;;;;1914184;75;21044;-58
2024/04/01 13:35:59;;;;;;;2.80;1.32;;;;;;;;;;1913295;75;21006;-58
2024/04/01 13:38:32;;;;;;;12.65;2.27;;;;;;;;;;1912941;75;21088;-59
2024/04/01 13:41:08;;;;;;;9.25;1.98;;;;;;;;;;1911296;75;21057;-57
2024/04/01 13:43:55;;;;;;;13.00;1.70;;;;;;;;;;1914152;74;21163;-56
2024/04/01 13:46:42;;;;;;;6.10;1.12;;;;;;;;;;1913859;75;21096;-57
2024/04/01 13:49:15;;;;;;;5.95;1.62;;;;;;;;;;1914115;75;21097;-58
2024/04/01 13:51:45;;;;;;;4.22;1.57;;;;;;;;;;1914071;75;21097;-58
2024/04/01 13:54:31;;;;;;;6.85;1.42;;;;;;;;;;1910247;75;21479;-57
2024/04/01 13:57:17;;;;;;;5.03;1.55;;;;;;;;;;1914816;75;21041;-55
2024/04/01 13:59:54;;;;;;;7.22;1.57;;;;;;;;;;1914771;75;21014;-56
2024/04/01 14:02:40;;;;;;;8.13;1.47;;;;;;;;;;1914830;75;21083;-57
2024/04/01 14:05:13;;;;;;;4.00;1.40;;;;;;;;;;1914720;75;21108;-57
2024/04/01 14:07:49;;;;;;;6.10;1.27;;;;;;;;;;1914626;75;21044;-57
2024/04/01 14:10:25;;;;;;;13.58;3.08;;;;;;;;;;1914595;74;21029;-57
2024/04/01 14:12:58;;;;;;;12.35;2.15;;;;;;;;;;1913580;75;21003;-57
2024/04/01 14:15:40;;;;;;;4.42;1.50;;;;;;;;;;1914717;75;21484;-57
2024/04/01 14:18:13;;;;;;;7.37;1.60;;;;;;;;;;1846369;75;20998;-57
2024/04/01 14:20:43;;;;;;;5.65;1.95;;;;;;;;;;1904904;75;21034;-57
2024/04/01 14:23:11;;;;;;;7.70;1.47;;;;;;;;;;1914409;75;21097;-57
2024/04/01 14:25:47;;;;;;;4.80;1.60;;;;;;;;;;1914713;75;21136;-57
2024/04/01 14:28:16;;;;;;;19.10;2.15;;;;;;;;;;1913626;75;21151;-58
2024/04/01 14:30:45;;;;;;;10.38;2.10;;;;;;;;;;1914876;75;21071;-58
2024/04/01 14:33:17;;;;;;;6.70;1.90;;;;;;;;;;1914978;74;21006;-57
2024/04/01 14:35:47;;;;;;;9.38;2.00;;;;;;;;;;1916289;74;21003;-55
2024/04/01 14:38:16;;;;;;;5.12;2.02;;;;;;;;;;1924976;74;21093;-57
2024/04/01 14:40:48;;;;;;;11.65;3.92;;;;;;;;;;1927748;74;21140;-56
2024/04/01 14:43:17;;;;;;;6.90;2.67;;;;;;;;;;1925121;74;21126;-57
2024/04/01 14:45:46;;;;;;;25.05;4.53;;;;;;;;;;1920974;74;21094;-58
2024/04/01 14:48:15;;;;;;;22.85;2.75;;;;;;;;;;1922275;74;21030;-57
2024/04/01 14:50:44;;;;;;;15.75;4.35;;;;;;;;;;1917789;74;21073;-57
2024/04/01 14:53:14;;;;;;;20.82;4.03;;;;;;;;;;1917598;75;21073;-57